Latest Weather Observations for Melville Water

IDW60801

Issued at 12:33 am WST Wednesday 19 February 2020 (issued every 10 minutes, with the page automatically refreshed every 10 minutes)

About weather observations | Map of weather stations | Latest weather observations for WA | Other Formats
Station Details ID: 009091 Name: INNER DOLPHIN PYLON Lat: -31.99 Lon: 115.83 Height: 0.0 m
Data from the previous 72 hours. | See also: Recent months at Melville Water
Date/Time
WST
Temp
°C
App
Temp
°C
Dew
Point
°C
Rel
Hum
%
Delta-T
°C
Wind Press
QNH
hPa
Press
MSL
hPa
Rain since
9am
mm
Dir  Spd
km/h
Gust
km/h
Spd
kts
Gust
kts
19/12:30am - - - - - ENE 17 22 9 12 - - -
19/12:00am - - - - - E 22 32 12 17 - - -
 
Date/Time
WST
Temp
°C
App
Temp
°C
Dew
Point
°C
Rel
Hum
%
Delta-T
°C
Wind Press
QNH
hPa
Press
MSL
hPa
Rain since
9am
mm
Dir  Spd
km/h
Gust
km/h
Spd
kts
Gust
kts
18/11:30pm - - - - - ENE 20 28 11 15 - - -
18/11:00pm - - - - - E 11 15 6 8 - - -
18/10:30pm - - - - - E 13 19 7 10 - - -
18/10:00pm - - - - - E 13 17 7 9 - - -
18/09:30pm - - - - - ESE 15 24 8 13 - - -
18/09:00pm - - - - - ESE 15 19 8 10 - - -
18/08:30pm - - - - - ESE 17 24 9 13 - - -
18/08:00pm - - - - - ESE 15 19 8 10 - - -
18/07:30pm - - - - - ESE 19 20 10 11 - - -
18/07:00pm - - - - - ESE 20 22 11 12 - - -
18/06:30pm - - - - - ESE 19 24 10 13 - - -
18/06:00pm - - - - - ENE 20 26 11 14 - - -
18/05:30pm - - - - - ENE 19 24 10 13 - - -
18/05:00pm - - - - - E 22 35 12 19 - - -
18/04:30pm - - - - - ENE 17 24 9 13 - - -
18/04:00pm - - - - - E 15 26 8 14 - - -
18/03:30pm - - - - - E 20 30 11 16 - - -
18/03:00pm - - - - - ESE 15 22 8 12 - - -
18/02:30pm - - - - - ESE 20 30 11 16 - - -
18/02:00pm - - - - - SE 17 26 9 14 - - -
18/01:30pm - - - - - ESE 17 24 9 13 - - -
18/01:00pm - - - - - ESE 15 26 8 14 - - -
18/12:30pm - - - - - E 17 24 9 13 - - -
18/12:00pm - - - - - ENE 22 30 12 16 - - -
18/11:30am - - - - - E 22 28 12 15 - - -
18/11:00am - - - - - E 24 32 13 17 - - -
18/10:30am - - - - - E 28 33 15 18 - - -
18/10:00am - - - - - E 26 35 14 19 - - -
18/09:30am - - - - - E 26 37 14 20 - - -
18/09:00am - - - - - E 28 37 15 20 - - -
18/08:30am - - - - - E 28 39 15 21 - - -
18/08:00am - - - - - E 30 39 16 21 - - -
18/07:30am - - - - - E 32 39 17 21 - - -
18/07:00am - - - - - E 24 32 13 17 - - -
18/06:30am - - - - - ESE 24 33 13 18 - - -
18/06:00am - - - - - E 28 37 15 20 - - -
18/05:30am - - - - - E 30 37 16 20 - - -
18/05:00am - - - - - E 32 44 17 24 - - -
18/04:30am - - - - - E 24 35 13 19 - - -
18/04:00am - - - - - E 32 43 17 23 - - -
18/03:30am - - - - - E 32 44 17 24 - - -
18/03:00am - - - - - E 35 48 19 26 - - -
18/02:30am - - - - - E 33 46 18 25 - - -
18/02:04am - - - - - E 37 56 20 30 - - -
18/02:00am - - - - - E 39 56 21 30 - - -
18/01:54am - - - - - E 35 54 19 29 - - -
18/01:30am - - - - - E 37 48 20 26 - - -
18/01:00am - - - - - ESE 35 48 19 26 - - -
18/12:30am - - - - - ESE 35 52 19 28 - - -
18/12:22am - - - - - E 32 50 17 27 - - -
18/12:00am - - - - - ESE 37 50 20 27 - - -
 
Date/Time
WST
Temp
°C
App
Temp
°C
Dew
Point
°C
Rel
Hum
%
Delta-T
°C
Wind Press
QNH
hPa
Press
MSL
hPa
Rain since
9am
mm
Dir  Spd
km/h
Gust
km/h
Spd
kts
Gust
kts
17/11:37pm - - - - - ESE 35 54 19 29 - - -
17/11:30pm - - - - - ESE 35 46 19 25 - - -
17/11:00pm - - - - - ESE 28 39 15 21 - - -
17/10:30pm - - - - - ESE 37 52 20 28 - - -
17/10:05pm - - - - - ESE 33 54 18 29 - - -
17/10:00pm - - - - - ESE 32 46 17 25 - - -
17/09:30pm - - - - - ESE 22 32 12 17 - - -
17/09:00pm - - - - - ESE 17 24 9 13 - - -
17/08:30pm - - - - - ESE 22 30 12 16 - - -
17/08:00pm - - - - - ESE 22 30 12 16 - - -
17/07:30pm - - - - - ESE 22 32 12 17 - - -
17/07:00pm - - - - - ESE 28 35 15 19 - - -
17/06:30pm - - - - - S 11 22 6 12 - - -
17/06:00pm - - - - - SSW 22 30 12 16 - - -
17/05:30pm - - - - - SW 24 32 13 17 - - -
17/05:00pm - - - - - SW 24 32 13 17 - - -
17/04:30pm - - - - - SW 30 33 16 18 - - -
17/04:00pm - - - - - SW 26 32 14 17 - - -
17/03:30pm - - - - - SW 30 35 16 19 - - -
17/03:00pm - - - - - SW 28 33 15 18 - - -
17/02:30pm - - - - - WSW 26 32 14 17 - - -
17/02:00pm - - - - - SW 28 33 15 18 - - -
17/01:30pm - - - - - WSW 13 19 7 10 - - -
17/01:00pm - - - - - SW 7 9 4 5 - - -
17/12:30pm - - - - - S 6 9 3 5 - - -
17/12:00pm - - - - - ESE 11 20 6 11 - - -
17/11:30am - - - - - SE 17 24 9 13 - - -
17/11:00am - - - - - SE 13 19 7 10 - - -
17/10:30am - - - - - SSE 9 22 5 12 - - -
17/10:00am - - - - - ESE 9 17 5 9 - - -
17/09:30am - - - - - SE 7 17 4 9 - - -
17/09:00am - - - - - SE 13 19 7 10 - - -
17/08:30am - - - - - ESE 17 22 9 12 - - -
17/08:00am - - - - - SE 20 26 11 14 - - -
17/07:30am - - - - - SE 17 22 9 12 - - -
17/07:00am - - - - - SSE 15 19 8 10 - - -
17/06:30am - - - - - SE 17 22 9 12 - - -
17/06:00am - - - - - SE 15 22 8 12 - - -
17/05:30am - - - - - SE 20 24 11 13 - - -
17/05:00am - - - - - SE 22 30 12 16 - - -
17/04:30am - - - - - SE 24 32 13 17 - - -
17/04:00am - - - - - SE 13 19 7 10 - - -
17/03:30am - - - - - SSE 15 19 8 10 - - -
17/03:00am - - - - - SSE 17 20 9 11 - - -
17/02:30am - - - - - SSE 22 26 12 14 - - -
17/02:00am - - - - - S 19 26 10 14 - - -
17/01:30am - - - - - S 20 26 11 14 - - -
17/01:00am - - - - - S 20 26 11 14 - - -
17/12:30am - - - - - S 17 24 9 13 - - -
17/12:00am - - - - - S 20 28 11 15 - - -
 
Date/Time
WST
Temp
°C
App
Temp
°C
Dew
Point
°C
Rel
Hum
%
Delta-T
°C
Wind Press
QNH
hPa
Press
MSL
hPa
Rain since
9am
mm
Dir  Spd
km/h
Gust
km/h
Spd
kts
Gust
kts
16/11:30pm - - - - - S 22 30 12 16 - - -
16/11:00pm - - - - - S 19 26 10 14 - - -
16/10:30pm - - - - - S 20 26 11 14 - - -
16/10:00pm - - - - - S 22 32 12 17 - - -
16/09:30pm - - - - - S 17 22 9 12 - - -
16/09:00pm - - - - - SSW 22 33 12 18 - - -
16/08:30pm - - - - - S 24 28 13 15 - - -
16/08:00pm - - - - - SSW 30 37 16 20 - - -
16/07:30pm - - - - - SSW 32 44 17 24 - - -
16/07:00pm - - - - - SSW 32 39 17 21 - - -
16/06:30pm - - - - - SSW 33 44 18 24 - - -
16/06:00pm - - - - - SSW 35 46 19 25 - - -
16/05:30pm - - - - - SSW 35 44 19 24 - - -
16/05:00pm - - - - - SW 35 43 19 23 - - -
16/04:30pm - - - - - SW 37 48 20 26 - - -
16/04:00pm - - - - - SSW 33 41 18 22 - - -
16/03:30pm - - - - - SW 32 39 17 21 - - -
16/03:00pm - - - - - SW 30 41 16 22 - - -
16/02:30pm - - - - - SW 30 37 16 20 - - -
16/02:00pm - - - - - SW 28 35 15 19 - - -
16/01:30pm - - - - - SW 28 35 15 19 - - -
16/01:00pm - - - - - WSW 26 35 14 19 - - -
16/12:30pm - - - - - SW 24 32 13 17 - - -
16/12:00pm - - - - - SW 24 32 13 17 - - -
16/11:30am - - - - - SW 22 30 12 16 - - -
16/11:00am - - - - - SW 26 35 14 19 - - -
16/10:30am - - - - - SSW 19 26 10 14 - - -
16/10:00am - - - - - SSW 24 32 13 17 - - -
16/09:30am - - - - - SSW 22 30 12 16 - - -
16/09:00am - - - - - S 15 30 8 16 - - -
16/08:30am - - - - - SSE 13 19 7 10 - - -
16/08:00am - - - - - SSE 17 22 9 12 - - -
16/07:30am - - - - - SSE 19 26 10 14 - - -
16/07:00am - - - - - SSE 20 26 11 14 - - -
16/06:30am - - - - - SSE 20 28 11 15 - - -
16/06:00am - - - - - SSE 22 32 12 17 - - -
16/05:30am - - - - - SSE 22 32 12 17 - - -
16/05:00am - - - - - S 22 30 12 16 - - -
16/04:30am - - - - - SSW 24 33 13 18 - - -
16/04:00am - - - - - SSW 24 30 13 16 - - -
16/03:30am - - - - - SSW 24 32 13 17 - - -
16/03:00am - - - - - SSW 24 32 13 17 - - -
16/02:30am - - - - - SW 22 30 12 16 - - -
16/02:00am - - - - - SSW 20 28 11 15 - - -
16/01:30am - - - - - SSW 22 28 12 15 - - -
16/01:00am - - - - - SW 22 26 12 14 - - -

Other formats

Comma delimited format used in spreadsheet applications
http://www.bom.gov.au/fwo/IDW60801/IDW60801.95620.axf

JavaScript Object Notation format (JSON) in row-major order
http://www.bom.gov.au/fwo/IDW60801/IDW60801.95620.json

Data quality

Most of these data are generated automatically and are frequently updated. Quality checks on data are not normally performed. It is possible for incorrect values to appear. Refer to information at About Latest Weather Observations and please check the disclaimer before using these data.